sensor_id;sensor_type;location;lat;lon;timestamp;pressure;altitude;pressure_sealevel;temperature;humidity
76553;BME280;65395;53.168;18.156;2023-06-04T00:02:15;101691.54;;;7.33;61.25
76553;BME280;65395;53.168;18.156;2023-06-04T00:04:41;101690.69;;;7.33;61.41
76553;BME280;65395;53.168;18.156;2023-06-04T00:07:08;101690.40;;;7.32;61.32
76553;BME280;65395;53.168;18.156;2023-06-04T00:09:35;101688.42;;;7.29;61.40
76553;BME280;65395;53.168;18.156;2023-06-04T00:12:02;101684.85;;;7.26;61.48
76553;BME280;65395;53.168;18.156;2023-06-04T00:14:29;101685.34;;;7.24;61.49
76553;BME280;65395;53.168;18.156;2023-06-04T00:16:55;101681.21;;;7.21;61.72
76553;BME280;65395;53.168;18.156;2023-06-04T00:19:22;101676.08;;;7.18;61.76
76553;BME280;65395;53.168;18.156;2023-06-04T00:21:49;101673.70;;;7.15;61.96
76553;BME280;65395;53.168;18.156;2023-06-04T00:24:16;101675.16;;;7.11;61.97
76553;BME280;65395;53.168;18.156;2023-06-04T00:26:44;101676.41;;;7.07;62.00
76553;BME280;65395;53.168;18.156;2023-06-04T00:29:10;101672.75;;;7.03;62.15
76553;BME280;65395;53.168;18.156;2023-06-04T00:31:37;101676.00;;;6.99;62.13
76553;BME280;65395;53.168;18.156;2023-06-04T00:34:04;101671.10;;;6.94;62.25
76553;BME280;65395;53.168;18.156;2023-06-04T00:36:31;101671.26;;;6.91;62.32
76553;BME280;65395;53.168;18.156;2023-06-04T00:38:58;101668.23;;;6.86;62.44
76553;BME280;65395;53.168;18.156;2023-06-04T00:41:25;101667.91;;;6.83;62.48
76553;BME280;65395;53.168;18.156;2023-06-04T00:43:53;101667.45;;;6.81;62.61
76553;BME280;65395;53.168;18.156;2023-06-04T00:46:25;101661.68;;;6.78;62.82
76553;BME280;65395;53.168;18.156;2023-06-04T00:48:53;101663.64;;;6.76;62.88
76553;BME280;65395;53.168;18.156;2023-06-04T00:51:21;101662.33;;;6.73;62.89
76553;BME280;65395;53.168;18.156;2023-06-04T00:53:49;101662.75;;;6.70;62.91
76553;BME280;65395;53.168;18.156;2023-06-04T00:56:16;101661.23;;;6.67;63.14
76553;BME280;65395;53.168;18.156;2023-06-04T00:58:44;101663.10;;;6.61;63.22
76553;BME280;65395;53.168;18.156;2023-06-04T01:01:21;101661.11;;;6.56;63.22
76553;BME280;65395;53.168;18.156;2023-06-04T01:03:51;101661.96;;;6.50;63.34
76553;BME280;65395;53.168;18.156;2023-06-04T01:06:37;101655.95;;;6.46;63.43
76553;BME280;65395;53.168;18.156;2023-06-04T01:09:05;101658.43;;;6.44;63.76
76553;BME280;65395;53.168;18.156;2023-06-04T01:11:34;101654.61;;;6.41;63.75
76553;BME280;65395;53.168;18.156;2023-06-04T01:14:03;101656.94;;;6.38;63.69
76553;BME280;65395;53.168;18.156;2023-06-04T01:16:35;101657.42;;;6.33;63.81
76553;BME280;65395;53.168;18.156;2023-06-04T01:19:11;101659.15;;;6.30;63.89
76553;BME280;65395;53.168;18.156;2023-06-04T01:21:50;101664.27;;;6.28;64.07
76553;BME280;65395;53.168;18.156;2023-06-04T01:24:21;101660.66;;;6.22;64.09
76553;BME280;65395;53.168;18.156;2023-06-04T01:26:52;101662.70;;;6.16;64.22
76553;BME280;65395;53.168;18.156;2023-06-04T01:29:22;101664.63;;;6.11;64.36
76553;BME280;65395;53.168;18.156;2023-06-04T01:31:51;101665.50;;;6.08;64.45
76553;BME280;65395;53.168;18.156;2023-06-04T01:34:19;101663.85;;;6.05;64.34
76553;BME280;65395;53.168;18.156;2023-06-04T01:36:46;101667.74;;;6.02;64.62
76553;BME280;65395;53.168;18.156;2023-06-04T01:39:13;101669.20;;;5.98;64.50
76553;BME280;65395;53.168;18.156;2023-06-04T01:41:39;101668.95;;;5.93;64.74
76553;BME280;65395;53.168;18.156;2023-06-04T01:44:06;101670.95;;;5.89;64.86
76553;BME280;65395;53.168;18.156;2023-06-04T01:46:33;101670.52;;;5.84;64.88
76553;BME280;65395;53.168;18.156;2023-06-04T01:48:59;101667.43;;;5.80;64.88
76553;BME280;65395;53.168;18.156;2023-06-04T01:51:26;101668.60;;;5.77;65.02
76553;BME280;65395;53.168;18.156;2023-06-04T01:53:53;101665.42;;;5.73;65.31
76553;BME280;65395;53.168;18.156;2023-06-04T01:56:19;101664.11;;;5.68;65.40
76553;BME280;65395;53.168;18.156;2023-06-04T01:58:47;101665.29;;;5.65;65.49
76553;BME280;65395;53.168;18.156;2023-06-04T02:01:14;101662.30;;;5.62;65.42
76553;BME280;65395;53.168;18.156;2023-06-04T02:03:43;101661.37;;;5.60;65.52
76553;BME280;65395;53.168;18.156;2023-06-04T02:06:11;101664.20;;;5.58;65.70
76553;BME280;65395;53.168;18.156;2023-06-04T02:08:38;101659.48;;;5.55;65.80
76553;BME280;65395;53.168;18.156;2023-06-04T02:11:06;101664.54;;;5.52;65.84
76553;BME280;65395;53.168;18.156;2023-06-04T02:13:34;101665.37;;;5.50;66.01
76553;BME280;65395;53.168;18.156;2023-06-04T02:16:01;101667.44;;;5.49;66.03
76553;BME280;65395;53.168;18.156;2023-06-04T02:18:28;101665.66;;;5.47;66.16
76553;BME280;65395;53.168;18.156;2023-06-04T02:20:56;101665.00;;;5.40;66.25
76553;BME280;65395;53.168;18.156;2023-06-04T02:23:24;101665.86;;;5.37;66.52
76553;BME280;65395;53.168;18.156;2023-06-04T02:25:50;101663.27;;;5.35;66.62
76553;BME280;65395;53.168;18.156;2023-06-04T02:28:17;101663.86;;;5.32;66.58
76553;BME280;65395;53.168;18.156;2023-06-04T02:30:44;101667.69;;;5.31;66.61
76553;BME280;65395;53.168;18.156;2023-06-04T02:33:13;101668.66;;;5.30;66.61
76553;BME280;65395;53.168;18.156;2023-06-04T02:35:40;101670.27;;;5.29;66.58
76553;BME280;65395;53.168;18.156;2023-06-04T02:38:07;101670.84;;;5.27;66.65
76553;BME280;65395;53.168;18.156;2023-06-04T02:40:34;101672.96;;;5.26;66.91
76553;BME280;65395;53.168;18.156;2023-06-04T02:43:01;101675.34;;;5.25;67.11
76553;BME280;65395;53.168;18.156;2023-06-04T02:45:27;101673.70;;;5.25;67.18
76553;BME280;65395;53.168;18.156;2023-06-04T02:47:55;101675.61;;;5.25;67.12
76553;BME280;65395;53.168;18.156;2023-06-04T02:50:22;101671.70;;;5.24;67.33
76553;BME280;65395;53.168;18.156;2023-06-04T02:52:48;101673.04;;;5.20;67.33
76553;BME280;65395;53.168;18.156;2023-06-04T02:55:15;101669.46;;;5.20;67.58
76553;BME280;65395;53.168;18.156;2023-06-04T02:57:42;101669.58;;;5.20;67.60
76553;BME280;65395;53.168;18.156;2023-06-04T03:00:11;101664.33;;;5.19;67.79
76553;BME280;65395;53.168;18.156;2023-06-04T03:02:43;101665.98;;;5.19;67.74
76553;BME280;65395;53.168;18.156;2023-06-04T03:05:12;101662.56;;;5.19;67.97
76553;BME280;65395;53.168;18.156;2023-06-04T03:07:41;101661.39;;;5.23;68.13
76553;BME280;65395;53.168;18.156;2023-06-04T03:10:10;101656.42;;;5.28;68.30
76553;BME280;65395;53.168;18.156;2023-06-04T03:12:37;101656.83;;;5.33;68.27
76553;BME280;65395;53.168;18.156;2023-06-04T03:15:04;101656.45;;;5.37;68.13
76553;BME280;65395;53.168;18.156;2023-06-04T03:17:31;101659.34;;;5.40;68.42
76553;BME280;65395;53.168;18.156;2023-06-04T03:19:58;101664.14;;;5.44;68.42
76553;BME280;65395;53.168;18.156;2023-06-04T03:22:25;101662.88;;;5.48;68.45
76553;BME280;65395;53.168;18.156;2023-06-04T03:24:53;101667.10;;;5.52;68.49
76553;BME280;65395;53.168;18.156;2023-06-04T03:27:19;101673.75;;;5.59;68.63
76553;BME280;65395;53.168;18.156;2023-06-04T03:29:46;101670.44;;;5.65;68.65
76553;BME280;65395;53.168;18.156;2023-06-04T03:32:16;101672.11;;;5.72;68.90
76553;BME280;65395;53.168;18.156;2023-06-04T03:34:43;101670.23;;;5.79;68.89
76553;BME280;65395;53.168;18.156;2023-06-04T03:37:11;101669.08;;;5.83;68.88
76553;BME280;65395;53.168;18.156;2023-06-04T03:39:38;101670.40;;;5.88;68.94
76553;BME280;65395;53.168;18.156;2023-06-04T03:42:06;101667.69;;;5.95;68.91
76553;BME280;65395;53.168;18.156;2023-06-04T03:44:33;101667.49;;;6.02;68.97
76553;BME280;65395;53.168;18.156;2023-06-04T03:47:00;101662.79;;;6.09;69.09
76553;BME280;65395;53.168;18.156;2023-06-04T03:49:27;101662.44;;;6.14;69.13
76553;BME280;65395;53.168;18.156;2023-06-04T03:51:54;101661.45;;;6.20;69.25
76553;BME280;65395;53.168;18.156;2023-06-04T03:54:21;101662.16;;;6.27;69.38
76553;BME280;65395;53.168;18.156;2023-06-04T03:56:50;101661.05;;;6.34;69.54
76553;BME280;65395;53.168;18.156;2023-06-04T03:59:16;101656.83;;;6.42;69.56
76553;BME280;65395;53.168;18.156;2023-06-04T04:01:43;101657.80;;;6.49;69.51
76553;BME280;65395;53.168;18.156;2023-06-04T04:04:10;101654.95;;;6.57;69.46
76553;BME280;65395;53.168;18.156;2023-06-04T04:06:37;101661.90;;;6.66;69.47
76553;BME280;65395;53.168;18.156;2023-06-04T04:09:04;101661.02;;;6.76;69.48
76553;BME280;65395;53.168;18.156;2023-06-04T04:11:33;101664.96;;;6.85;69.66
76553;BME280;65395;53.168;18.156;2023-06-04T04:14:00;101663.95;;;6.96;69.65
76553;BME280;65395;53.168;18.156;2023-06-04T04:16:28;101659.84;;;7.07;69.60
76553;BME280;65395;53.168;18.156;2023-06-04T04:18:54;101662.64;;;7.18;69.39
76553;BME280;65395;53.168;18.156;2023-06-04T04:21:22;101662.89;;;7.30;69.47
76553;BME280;65395;53.168;18.156;2023-06-04T04:23:50;101660.15;;;7.42;69.27
76553;BME280;65395;53.168;18.156;2023-06-04T04:26:18;101659.16;;;7.53;69.17
76553;BME280;65395;53.168;18.156;2023-06-04T04:28:47;101659.56;;;7.66;69.02
76553;BME280;65395;53.168;18.156;2023-06-04T04:31:14;101656.91;;;7.79;68.96
76553;BME280;65395;53.168;18.156;2023-06-04T04:33:42;101657.03;;;7.92;68.36
76553;BME280;65395;53.168;18.156;2023-06-04T04:36:11;101657.12;;;8.05;67.71
76553;BME280;65395;53.168;18.156;2023-06-04T04:38:44;101656.66;;;8.19;67.54
76553;BME280;65395;53.168;18.156;2023-06-04T04:41:12;101653.39;;;8.32;67.14
76553;BME280;65395;53.168;18.156;2023-06-04T04:43:39;101655.36;;;8.45;66.76
76553;BME280;65395;53.168;18.156;2023-06-04T04:46:14;101654.20;;;8.58;66.29
76553;BME280;65395;53.168;18.156;2023-06-04T04:48:41;101659.08;;;8.72;65.68
76553;BME280;65395;53.168;18.156;2023-06-04T04:51:09;101653.91;;;8.86;65.25
76553;BME280;65395;53.168;18.156;2023-06-04T04:53:36;101654.49;;;8.99;64.83
76553;BME280;65395;53.168;18.156;2023-06-04T04:56:03;101656.77;;;9.12;64.50
76553;BME280;65395;53.168;18.156;2023-06-04T04:58:31;101659.50;;;9.24;63.90
76553;BME280;65395;53.168;18.156;2023-06-04T05:00:58;101660.80;;;9.36;63.42
76553;BME280;65395;53.168;18.156;2023-06-04T05:03:25;101663.95;;;9.49;63.08
76553;BME280;65395;53.168;18.156;2023-06-04T05:05:51;101664.52;;;9.61;62.86
76553;BME280;65395;53.168;18.156;2023-06-04T05:08:19;101663.11;;;9.73;62.69
76553;BME280;65395;53.168;18.156;2023-06-04T05:10:46;101665.55;;;9.83;62.33
76553;BME280;65395;53.168;18.156;2023-06-04T05:13:12;101670.66;;;9.94;61.95
76553;BME280;65395;53.168;18.156;2023-06-04T05:15:44;101674.64;;;10.07;61.54
76553;BME280;65395;53.168;18.156;2023-06-04T05:18:11;101674.91;;;10.18;61.27
76553;BME280;65395;53.168;18.156;2023-06-04T05:20:38;101677.02;;;10.29;61.00
76553;BME280;65395;53.168;18.156;2023-06-04T05:23:07;101677.59;;;10.40;60.88
76553;BME280;65395;53.168;18.156;2023-06-04T05:25:33;101675.27;;;10.50;60.71
76553;BME280;65395;53.168;18.156;2023-06-04T05:28:01;101677.61;;;10.61;60.46
76553;BME280;65395;53.168;18.156;2023-06-04T05:30:28;101678.42;;;10.73;60.03
76553;BME280;65395;53.168;18.156;2023-06-04T05:32:54;101675.44;;;10.85;59.72
76553;BME280;65395;53.168;18.156;2023-06-04T05:35:23;101675.63;;;10.95;59.58
76553;BME280;65395;53.168;18.156;2023-06-04T05:37:50;101673.41;;;11.05;59.41
76553;BME280;65395;53.168;18.156;2023-06-04T05:40:21;101676.91;;;11.16;59.14
76553;BME280;65395;53.168;18.156;2023-06-04T05:42:48;101676.91;;;11.27;58.71
76553;BME280;65395;53.168;18.156;2023-06-04T05:45:16;101679.80;;;11.38;57.89
76553;BME280;65395;53.168;18.156;2023-06-04T05:47:43;101684.34;;;11.51;57.26
76553;BME280;65395;53.168;18.156;2023-06-04T05:50:10;101687.77;;;11.64;57.04
76553;BME280;65395;53.168;18.156;2023-06-04T05:52:37;101691.69;;;11.76;56.49
76553;BME280;65395;53.168;18.156;2023-06-04T05:55:06;101689.76;;;11.89;56.27
76553;BME280;65395;53.168;18.156;2023-06-04T05:57:34;101694.52;;;12.02;55.72
76553;BME280;65395;53.168;18.156;2023-06-04T06:00:02;101695.23;;;12.16;55.48
76553;BME280;65395;53.168;18.156;2023-06-04T06:02:40;101692.96;;;12.29;55.04
76553;BME280;65395;53.168;18.156;2023-06-04T06:05:11;101696.30;;;12.42;54.90
76553;BME280;65395;53.168;18.156;2023-06-04T06:07:38;101700.38;;;12.54;54.36
76553;BME280;65395;53.168;18.156;2023-06-04T06:10:05;101698.39;;;12.66;54.03
76553;BME280;65395;53.168;18.156;2023-06-04T06:12:33;101693.84;;;12.78;53.36
76553;BME280;65395;53.168;18.156;2023-06-04T06:15:00;101696.93;;;12.90;53.02
76553;BME280;65395;53.168;18.156;2023-06-04T06:17:27;101695.59;;;13.02;52.58
76553;BME280;65395;53.168;18.156;2023-06-04T06:19:55;101699.34;;;13.15;52.54
76553;BME280;65395;53.168;18.156;2023-06-04T06:22:23;101701.63;;;13.27;51.68
76553;BME280;65395;53.168;18.156;2023-06-04T06:24:50;101706.12;;;13.41;51.45
76553;BME280;65395;53.168;18.156;2023-06-04T06:27:17;101706.23;;;13.53;51.15
76553;BME280;65395;53.168;18.156;2023-06-04T06:29:45;101704.13;;;13.64;50.00
76553;BME280;65395;53.168;18.156;2023-06-04T06:32:12;101706.75;;;13.77;49.66
76553;BME280;65395;53.168;18.156;2023-06-04T06:34:39;101712.24;;;13.90;49.18
76553;BME280;65395;53.168;18.156;2023-06-04T06:37:06;101710.21;;;14.01;48.76
76553;BME280;65395;53.168;18.156;2023-06-04T06:39:33;101708.36;;;14.11;47.84
76553;BME280;65395;53.168;18.156;2023-06-04T06:42:00;101711.84;;;14.22;47.59
76553;BME280;65395;53.168;18.156;2023-06-04T06:44:33;101713.96;;;14.33;46.87
76553;BME280;65395;53.168;18.156;2023-06-04T06:46:59;101716.67;;;14.45;45.93
76553;BME280;65395;53.168;18.156;2023-06-04T06:49:26;101713.83;;;14.57;46.01
76553;BME280;65395;53.168;18.156;2023-06-04T06:51:52;101715.91;;;14.68;45.42
76553;BME280;65395;53.168;18.156;2023-06-04T06:54:19;101716.06;;;14.79;45.11
76553;BME280;65395;53.168;18.156;2023-06-04T06:56:48;101711.34;;;14.91;44.34
76553;BME280;65395;53.168;18.156;2023-06-04T06:59:16;101712.63;;;15.04;43.62
76553;BME280;65395;53.168;18.156;2023-06-04T07:01:43;101710.91;;;15.16;43.64
76553;BME280;65395;53.168;18.156;2023-06-04T07:04:09;101715.52;;;15.27;43.06
76553;BME280;65395;53.168;18.156;2023-06-04T07:06:36;101712.96;;;15.40;42.45
76553;BME280;65395;53.168;18.156;2023-06-04T07:09:03;101707.20;;;15.50;41.63
76553;BME280;65395;53.168;18.156;2023-06-04T07:11:32;101704.48;;;15.59;42.01
76553;BME280;65395;53.168;18.156;2023-06-04T07:13:59;101703.20;;;15.69;41.85
76553;BME280;65395;53.168;18.156;2023-06-04T07:16:28;101706.51;;;15.77;41.57
76553;BME280;65395;53.168;18.156;2023-06-04T07:18:55;101706.70;;;15.87;41.27
76553;BME280;65395;53.168;18.156;2023-06-04T07:21:22;101704.36;;;15.95;41.22
76553;BME280;65395;53.168;18.156;2023-06-04T07:23:50;101710.94;;;16.05;40.85
76553;BME280;65395;53.168;18.156;2023-06-04T07:26:17;101708.70;;;16.14;40.56
76553;BME280;65395;53.168;18.156;2023-06-04T07:28:44;101709.70;;;16.22;40.03
76553;BME280;65395;53.168;18.156;2023-06-04T07:31:15;101699.64;;;16.30;39.64
76553;BME280;65395;53.168;18.156;2023-06-04T07:33:42;101700.41;;;16.37;39.32
76553;BME280;65395;53.168;18.156;2023-06-04T07:36:12;101701.17;;;16.44;39.44
76553;BME280;65395;53.168;18.156;2023-06-04T07:38:39;101703.89;;;16.51;38.88
76553;BME280;65395;53.168;18.156;2023-06-04T07:41:06;101703.08;;;16.60;38.48
76553;BME280;65395;53.168;18.156;2023-06-04T07:43:33;101701.04;;;16.69;38.56
76553;BME280;65395;53.168;18.156;2023-06-04T07:46:02;101697.50;;;16.76;38.57
76553;BME280;65395;53.168;18.156;2023-06-04T07:48:29;101699.08;;;16.85;38.02
76553;BME280;65395;53.168;18.156;2023-06-04T07:50:58;101699.20;;;16.93;37.70
76553;BME280;65395;53.168;18.156;2023-06-04T07:53:26;101700.02;;;17.03;37.56
76553;BME280;65395;53.168;18.156;2023-06-04T07:55:53;101698.98;;;17.12;37.30
76553;BME280;65395;53.168;18.156;2023-06-04T07:58:21;101697.02;;;17.20;36.63
76553;BME280;65395;53.168;18.156;2023-06-04T08:00:49;101698.59;;;17.29;36.33
76553;BME280;65395;53.168;18.156;2023-06-04T08:03:16;101699.06;;;17.40;36.20
76553;BME280;65395;53.168;18.156;2023-06-04T08:05:43;101697.86;;;17.50;35.73
76553;BME280;65395;53.168;18.156;2023-06-04T08:08:09;101696.80;;;17.58;35.63
76553;BME280;65395;53.168;18.156;2023-06-04T08:10:36;101695.61;;;17.61;35.27
76553;BME280;65395;53.168;18.156;2023-06-04T08:13:03;101694.13;;;17.60;34.57
76553;BME280;65395;53.168;18.156;2023-06-04T08:15:36;101694.19;;;17.61;35.02
76553;BME280;65395;53.168;18.156;2023-06-04T08:18:03;101695.95;;;17.65;35.09
76553;BME280;65395;53.168;18.156;2023-06-04T08:20:30;101694.42;;;17.71;35.14
76553;BME280;65395;53.168;18.156;2023-06-04T08:22:56;101700.92;;;17.79;34.60
76553;BME280;65395;53.168;18.156;2023-06-04T08:25:23;101698.70;;;17.86;34.36
76553;BME280;65395;53.168;18.156;2023-06-04T08:27:50;101699.86;;;17.95;34.06
76553;BME280;65395;53.168;18.156;2023-06-04T08:30:17;101698.77;;;17.99;33.60
76553;BME280;65395;53.168;18.156;2023-06-04T08:32:44;101697.50;;;18.03;33.45
76553;BME280;65395;53.168;18.156;2023-06-04T08:35:10;101691.20;;;18.05;33.08
76553;BME280;65395;53.168;18.156;2023-06-04T08:37:37;101691.20;;;18.03;32.77
76553;BME280;65395;53.168;18.156;2023-06-04T08:40:04;101688.75;;;18.03;33.01
76553;BME280;65395;53.168;18.156;2023-06-04T08:42:38;101688.06;;;18.08;32.89
76553;BME280;65395;53.168;18.156;2023-06-04T08:45:10;101686.86;;;18.15;32.93
76553;BME280;65395;53.168;18.156;2023-06-04T08:48:04;101690.38;;;18.22;32.84
76553;BME280;65395;53.168;18.156;2023-06-04T08:50:34;101692.72;;;18.32;33.05
76553;BME280;65395;53.168;18.156;2023-06-04T08:53:02;101689.33;;;18.43;33.17
76553;BME280;65395;53.168;18.156;2023-06-04T08:55:29;101692.63;;;18.54;32.74
76553;BME280;65395;53.168;18.156;2023-06-04T08:57:57;101695.30;;;18.66;32.23
76553;BME280;65395;53.168;18.156;2023-06-04T09:00:24;101695.09;;;18.75;31.86
76553;BME280;65395;53.168;18.156;2023-06-04T09:02:51;101690.52;;;18.81;32.08
76553;BME280;65395;53.168;18.156;2023-06-04T09:05:20;101691.98;;;18.89;31.76
76553;BME280;65395;53.168;18.156;2023-06-04T09:07:48;101691.07;;;18.96;31.39
76553;BME280;65395;53.168;18.156;2023-06-04T09:10:18;101687.44;;;19.02;31.19
76553;BME280;65395;53.168;18.156;2023-06-04T09:12:49;101688.23;;;19.10;31.13
76553;BME280;65395;53.168;18.156;2023-06-04T09:15:17;101689.89;;;19.15;30.41
76553;BME280;65395;53.168;18.156;2023-06-04T09:17:44;101688.87;;;19.18;30.33
76553;BME280;65395;53.168;18.156;2023-06-04T09:20:19;101689.11;;;19.18;30.40
76553;BME280;65395;53.168;18.156;2023-06-04T09:22:46;101688.04;;;19.25;30.25
76553;BME280;65395;53.168;18.156;2023-06-04T09:25:23;101688.46;;;19.36;30.15
76553;BME280;65395;53.168;18.156;2023-06-04T09:27:53;101683.63;;;19.43;29.82
76553;BME280;65395;53.168;18.156;2023-06-04T09:30:22;101681.95;;;19.48;29.63
76553;BME280;65395;53.168;18.156;2023-06-04T09:32:49;101682.52;;;19.51;29.54
76553;BME280;65395;53.168;18.156;2023-06-04T09:35:18;101685.86;;;19.56;29.23
76553;BME280;65395;53.168;18.156;2023-06-04T09:37:53;101680.17;;;19.51;29.01
76553;BME280;65395;53.168;18.156;2023-06-04T09:40:22;101677.88;;;19.53;28.81
76553;BME280;65395;53.168;18.156;2023-06-04T09:42:50;101678.95;;;19.62;28.40
76553;BME280;65395;53.168;18.156;2023-06-04T09:45:31;101679.61;;;19.69;27.87
76553;BME280;65395;53.168;18.156;2023-06-04T09:47:59;101670.19;;;19.72;28.26
76553;BME280;65395;53.168;18.156;2023-06-04T09:50:29;101671.23;;;19.81;28.25
76553;BME280;65395;53.168;18.156;2023-06-04T09:52:57;101673.37;;;19.89;27.96
76553;BME280;65395;53.168;18.156;2023-06-04T09:55:24;101671.85;;;19.95;28.04
76553;BME280;65395;53.168;18.156;2023-06-04T09:57:52;101670.46;;;20.02;28.27
76553;BME280;65395;53.168;18.156;2023-06-04T10:00:21;101671.09;;;20.14;28.36
76553;BME280;65395;53.168;18.156;2023-06-04T10:02:50;101671.30;;;20.25;28.08
76553;BME280;65395;53.168;18.156;2023-06-04T10:05:20;101671.05;;;20.32;28.17
76553;BME280;65395;53.168;18.156;2023-06-04T10:07:50;101670.42;;;20.42;27.82
76553;BME280;65395;53.168;18.156;2023-06-04T10:10:21;101668.92;;;20.51;28.02
76553;BME280;65395;53.168;18.156;2023-06-04T10:15:30;101665.17;;;20.74;27.64
76553;BME280;65395;53.168;18.156;2023-06-04T10:18:02;101666.16;;;20.84;27.77
76553;BME280;65395;53.168;18.156;2023-06-04T10:20:31;101662.14;;;20.92;27.52
76553;BME280;65395;53.168;18.156;2023-06-04T10:22:58;101659.15;;;20.98;27.30
76553;BME280;65395;53.168;18.156;2023-06-04T10:25:27;101657.86;;;21.03;27.49
76553;BME280;65395;53.168;18.156;2023-06-04T10:27:55;101656.65;;;21.12;27.27
76553;BME280;65395;53.168;18.156;2023-06-04T10:30:22;101658.34;;;21.21;26.98
76553;BME280;65395;53.168;18.156;2023-06-04T10:32:49;101659.64;;;21.27;26.49
76553;BME280;65395;53.168;18.156;2023-06-04T10:35:16;101658.33;;;21.32;26.71
76553;BME280;65395;53.168;18.156;2023-06-04T10:37:43;101657.81;;;21.39;26.81
76553;BME280;65395;53.168;18.156;2023-06-04T10:40:10;101656.35;;;21.50;26.51
76553;BME280;65395;53.168;18.156;2023-06-04T10:42:40;101657.44;;;21.60;26.34
76553;BME280;65395;53.168;18.156;2023-06-04T10:45:08;101655.42;;;21.67;26.53
76553;BME280;65395;53.168;18.156;2023-06-04T10:47:36;101659.23;;;21.77;26.36
76553;BME280;65395;53.168;18.156;2023-06-04T10:50:09;101660.34;;;21.88;25.82
76553;BME280;65395;53.168;18.156;2023-06-04T10:52:38;101652.95;;;21.91;25.70
76553;BME280;65395;53.168;18.156;2023-06-04T10:55:07;101654.08;;;21.93;25.45
76553;BME280;65395;53.168;18.156;2023-06-04T10:57:35;101651.10;;;21.98;25.61
76553;BME280;65395;53.168;18.156;2023-06-04T11:00:03;101649.05;;;22.04;25.51
76553;BME280;65395;53.168;18.156;2023-06-04T11:02:32;101647.14;;;22.12;25.46
76553;BME280;65395;53.168;18.156;2023-06-04T11:05:02;101652.95;;;22.24;25.72
76553;BME280;65395;53.168;18.156;2023-06-04T11:07:42;101662.00;;;22.34;25.24
76553;BME280;65395;53.168;18.156;2023-06-04T11:10:11;101657.09;;;22.29;25.00
76553;BME280;65395;53.168;18.156;2023-06-04T11:12:47;101652.90;;;22.22;24.95
76553;BME280;65395;53.168;18.156;2023-06-04T11:15:14;101650.11;;;22.19;25.23
76553;BME280;65395;53.168;18.156;2023-06-04T11:17:52;101652.04;;;22.29;25.23
76553;BME280;65395;53.168;18.156;2023-06-04T11:20:20;101653.62;;;22.39;24.99
76553;BME280;65395;53.168;18.156;2023-06-04T11:22:58;101648.06;;;22.48;24.89
76553;BME280;65395;53.168;18.156;2023-06-04T11:25:30;101644.48;;;22.55;24.63
76553;BME280;65395;53.168;18.156;2023-06-04T11:28:00;101641.23;;;22.64;24.87
76553;BME280;65395;53.168;18.156;2023-06-04T11:30:28;101640.54;;;22.75;24.52
76553;BME280;65395;53.168;18.156;2023-06-04T11:33:03;101638.52;;;22.86;24.47
76553;BME280;65395;53.168;18.156;2023-06-04T11:35:39;101639.63;;;23.03;24.50
76553;BME280;65395;53.168;18.156;2023-06-04T11:38:06;101633.52;;;23.23;24.42
76553;BME280;65395;53.168;18.156;2023-06-04T11:40:33;101634.86;;;23.38;24.29
76553;BME280;65395;53.168;18.156;2023-06-04T11:43:01;101637.23;;;23.54;24.17
76553;BME280;65395;53.168;18.156;2023-06-04T11:45:28;101637.24;;;23.67;23.98
76553;BME280;65395;53.168;18.156;2023-06-04T11:47:57;101633.83;;;23.73;23.60
76553;BME280;65395;53.168;18.156;2023-06-04T11:50:28;101626.92;;;23.70;23.37
76553;BME280;65395;53.168;18.156;2023-06-04T11:52:55;101620.38;;;23.76;23.67
76553;BME280;65395;53.168;18.156;2023-06-04T11:55:22;101619.53;;;23.97;23.95
76553;BME280;65395;53.168;18.156;2023-06-04T11:57:50;101622.01;;;24.17;23.51
76553;BME280;65395;53.168;18.156;2023-06-04T12:00:18;101625.37;;;24.31;23.19
76553;BME280;65395;53.168;18.156;2023-06-04T12:02:50;101626.24;;;24.39;23.05
76553;BME280;65395;53.168;18.156;2023-06-04T12:05:19;101625.16;;;24.50;23.01
76553;BME280;65395;53.168;18.156;2023-06-04T12:07:47;101619.23;;;24.62;22.77
76553;BME280;65395;53.168;18.156;2023-06-04T12:10:18;101622.12;;;24.68;22.67
76553;BME280;65395;53.168;18.156;2023-06-04T12:12:46;101618.34;;;24.67;22.45
76553;BME280;65395;53.168;18.156;2023-06-04T12:15:18;101617.11;;;24.75;22.69
76553;BME280;65395;53.168;18.156;2023-06-04T12:17:50;101614.64;;;24.94;22.35
76553;BME280;65395;53.168;18.156;2023-06-04T12:20:18;101619.05;;;25.14;22.18
76553;BME280;65395;53.168;18.156;2023-06-04T12:22:47;101613.11;;;25.36;21.97
76553;BME280;65395;53.168;18.156;2023-06-04T12:25:24;101615.52;;;25.50;21.80
76553;BME280;65395;53.168;18.156;2023-06-04T12:27:52;101614.75;;;25.70;21.66
76553;BME280;65395;53.168;18.156;2023-06-04T12:30:20;101612.45;;;25.88;21.74
76553;BME280;65395;53.168;18.156;2023-06-04T12:32:47;101617.55;;;26.09;21.69
76553;BME280;65395;53.168;18.156;2023-06-04T12:35:14;101614.48;;;26.33;21.55
76553;BME280;65395;53.168;18.156;2023-06-04T12:37:42;101621.89;;;26.53;20.90
76553;BME280;65395;53.168;18.156;2023-06-04T12:40:09;101615.98;;;26.50;20.67
76553;BME280;65395;53.168;18.156;2023-06-04T12:42:36;101616.39;;;26.59;20.92
76553;BME280;65395;53.168;18.156;2023-06-04T12:45:03;101614.70;;;26.78;20.97
76553;BME280;65395;53.168;18.156;2023-06-04T12:47:30;101615.67;;;26.99;20.69
76553;BME280;65395;53.168;18.156;2023-06-04T12:49:58;101619.09;;;27.10;20.42
76553;BME280;65395;53.168;18.156;2023-06-04T12:52:24;101618.81;;;27.22;20.54